Terminal Aerodrome Forecast
Issued by NWS Twin Cities, MN

Home | Current Version | Previous Version | Text Only | Print | Product List | Glossary Off
Versions: 1 2 3 4 5 6 7 8 9 10 11 12 13

748
FTUS43 KMPX 211505 AAA
TAFEAU
TAF AMD
KEAU 211505Z 2115/2212 18011KT 6SM -SHRA SCT025 OVC050
     FM211600 18012G20KT P6SM SCT020 OVC040
     FM220300 19008KT 4SM -TSRA BKN020CB OVC040
     FM220500 20009KT 6SM -SHRA OVC020=

USA.gov is the U.S. government's official web portal to all federal, state and local government web resources and services.